KVOK/VOK METAR and TAF weather

Enter ICAO airport designator
Station Type Date Time Source
KVOK METAR 2019/02/22 22:56 UTC NOAA

KVOK 222256Z AUTO 17005KT 10SM CLR 00/M09 A3033 RMK AO2 SLP290 T00001087


Station Type Date Time Source
KVOK Decoded METAR 2019/02/22 22:56 UTC NOAA

Volk / Camp Douglas, WI, United States (KVOK) 43-56N 090-16W
Feb 22, 2019 - 05:56 PM EST / 2019.02.22 2256 UTC
Wind: from the S (170 degrees) at 6 MPH (5 KT):0
Visibility: 10 mile(s):0
Sky conditions: clear
Temperature: 32.0 F (0.0 C)
Windchill: 26 F (-3 C):1
Dew Point: 16.3 F (-8.7 C)
Relative Humidity: 51%
Pressure (altimeter): 30.33 in. Hg (1027 hPa)
ob: KVOK 222256Z AUTO 17005KT 10SM CLR 00/M09 A3033 RMK AO2 SLP290 T00001087
cycle: 23

Station Type Date Time Source
KVOK TAF 2019/02/22 17:10 UTC NOAA

TAF KVOK 221700Z 2217/2323 VRB03KT 9999 FEW070 SCT160 QNH3021INS
BECMG 2308/2309 10010KT 9999 FEW010 BKN070 QNH3000INS
BECMG 2311/2312 04008KT 1600 -SNPL FEW005 BKN010 OVC020 620209 QNH2989INS
BECMG 2313/2314 08009KT 3200 -FZRA OVC002 690001 620109 QNH2974INS
BECMG 2317/2318 09008KT 6000 -RA OVC002 620029 QNH2963INS
BECMG 2320/2321 03005KT 8000 BR OVC005 620059 QNH2956INS TXM01/2315Z TNM05/2217Z LAST NO
AMDS AFT 2222 NEXT 2809


Example: see airport list